Nathrop, CO (81236)

7:45 AM MDT on July 30, 2016 (GMT -0600)
Mesa Antero | | Change Station

Elev 8202 ft 38.68 °N, 106.10 °W | Updated 4 minutes ago

Clear
Clear
58.5 °F
Feels Like 58.5 °F
N
0.9
Wind Variable Wind from NNE
Gusts 4.0 mph

Today
High -- | Low -- °F
--% Chance of Precip.
Yesterday
High -- | Low -- °F
Precip. -- in
Pressure 30.33 in
Visibility 10.0 miles
Clouds Clear
Dew Point 48 °F
Humidity 67%
Rainfall 0.00 in
Snow Depth Not available.
6:04 AM 8:16 PM
Waning Crescent, 13% visible
METAR KAEJ 301335Z AUTO 00000KT 10SM CLR 14/08 A3033 RMK AO2 T01410076
Pressure 30.33 in
Visibility 10.0 miles
Clouds Clear
Dew Point 48 °F
Humidity 67%
Rainfall 0.00 in
Snow Depth Not available.
6:04 AM 8:16 PM
Waning Crescent, 13% visible
METAR KAEJ 301335Z AUTO 00000KT 10SM CLR 14/08 A3033 RMK AO2 T01410076

10-Day Weather Forecast

Almanac

Astronomy

Jul. 30, 2016 Rise Set
Actual Time
Civil Twilight
Nautical Twilight
Astronomical Twilight
Moon
Length of Visible Light
Length of Day
Tomorrow will be .
, % of the Moon is Illuminated

Today's Extremes

State Highs State Lows

Community

WunderPhotos

Upload Photos

1,928,560 photos uploaded!

WunderBlog® & News

Nearby

Air Quality

  Air Quality AQ Index Pollutant
Not available.

Snow Depth

Station Depth Elevation

Earthquake Activity

City Distance Mag. Time & Date
Minimum magnitude displayed is 2.5.

Coastal Water Temperatures

Place Temperature

Stations

Nearby Weather Stations

Station Location Temp. Windchill Dew Point Humidity Wind Precip. Elev Updated Type
                   

Watches & Warnings

There are currently no watches in effect.